Time;durP1;ratioP1;P1;durP2;ratioP2;P2;SDS_P1;SDS_P2;PMS_P1;PMS_P2;Temp;Humidity;BMP_temperature;BMP_pressure;BME280_temperature;BME280_humidity;BME280_pressure;Samples;Min_cycle;Max_cycle;Signal;HPM_P1;HPM_P2
2022/07/05 00:00:45;;;;;;;7.72;4.30;;;15.10;95.60;;;;;;5119600;27;20031;-67
2022/07/05 00:03:11;;;;;;;7.32;4.07;;;15.10;95.60;;;;;;5114648;27;20035;-67
2022/07/05 00:05:37;;;;;;;7.28;4.55;;;15.10;95.70;;;;;;5115349;27;20329;-67
2022/07/05 00:08:04;;;;;;;6.00;4.00;;;15.00;95.60;;;;;;5105428;27;20106;-67
2022/07/05 00:10:31;;;;;;;14.82;5.15;;;15.00;95.20;;;;;;5116860;27;20957;-67
2022/07/05 00:12:57;;;;;;;5.10;4.18;;;15.00;94.90;;;;;;5117454;27;20137;-66
2022/07/05 00:15:22;;;;;;;7.82;4.80;;;14.90;95.10;;;;;;5115430;27;20023;-67
2022/07/05 00:17:51;;;;;;;6.95;4.60;;;14.90;94.90;;;;;;5115505;27;20027;-66
2022/07/05 00:20:16;;;;;;;6.53;4.30;;;14.90;94.30;;;;;;5114336;27;20024;-66
2022/07/05 00:22:42;;;;;;;7.03;4.25;;;14.80;94.50;;;;;;5115537;27;20027;-67
2022/07/05 00:25:08;;;;;;;8.40;4.13;;;14.80;94.10;;;;;;5121942;27;20095;-67
2022/07/05 00:27:34;;;;;;;7.47;4.53;;;14.80;93.90;;;;;;5116499;27;20042;-66
2022/07/05 00:29:59;;;;;;;8.90;5.15;;;14.60;93.90;;;;;;5113816;27;20106;-67
2022/07/05 00:32:25;;;;;;;7.40;4.70;;;14.50;93.70;;;;;;5116366;27;20099;-67
2022/07/05 00:34:51;;;;;;;8.13;5.05;;;14.50;93.10;;;;;;5115406;27;20481;-67
2022/07/05 00:37:17;;;;;;;9.65;4.82;;;14.50;93.00;;;;;;5103407;28;20431;-68
2022/07/05 00:39:42;;;;;;;6.88;5.20;;;14.50;92.90;;;;;;5113362;27;20331;-67
2022/07/05 00:42:08;;;;;;;8.10;5.38;;;14.50;92.80;;;;;;5112832;27;20315;-67
2022/07/05 00:44:36;;;;;;;7.88;5.25;;;14.50;92.90;;;;;;5116052;27;20045;-67
2022/07/05 00:47:05;;;;;;;7.70;4.65;;;14.40;93.00;;;;;;5114933;27;20020;-68
2022/07/05 00:49:33;;;;;;;6.55;4.72;;;14.20;93.10;;;;;;5115693;27;20023;-66
2022/07/05 00:52:00;;;;;;;6.47;5.07;;;14.20;92.20;;;;;;5112161;27;20096;-67
2022/07/05 00:54:27;;;;;;;8.23;4.70;;;14.30;91.80;;;;;;5115302;27;20036;-67
2022/07/05 00:56:54;;;;;;;13.35;5.10;;;14.30;91.60;;;;;;5113515;27;20059;-67
2022/07/05 00:59:19;;;;;;;7.47;5.18;;;14.20;92.00;;;;;;5117292;27;20020;-67
2022/07/05 01:01:45;;;;;;;10.63;4.95;;;14.20;91.30;;;;;;5117226;27;20031;-65
2022/07/05 01:04:12;;;;;;;7.82;5.00;;;14.20;91.50;;;;;;5124148;27;20092;-67
2022/07/05 01:06:40;;;;;;;9.57;4.93;;;14.20;91.80;;;;;;5114387;27;20057;-67
2022/07/05 01:09:06;;;;;;;7.47;5.03;;;14.10;92.30;;;;;;5115841;28;20045;-66
2022/07/05 01:11:32;;;;;;;8.88;4.97;;;13.90;92.00;;;;;;5102310;27;20035;-67
2022/07/05 01:14:01;;;;;;;6.85;4.90;;;14.00;91.00;;;;;;5116165;27;20027;-66
2022/07/05 01:16:27;;;;;;;8.65;5.53;;;14.10;91.20;;;;;;5096706;28;20021;-67
2022/07/05 01:18:53;;;;;;;8.43;4.70;;;14.10;91.80;;;;;;5112986;27;20323;-67
2022/07/05 01:21:22;;;;;;;8.40;5.50;;;14.10;91.50;;;;;;5107733;28;20031;-68
2022/07/05 01:23:49;;;;;;;8.60;4.95;;;14.10;91.00;;;;;;5117151;27;20102;-66
2022/07/05 01:26:16;;;;;;;7.43;4.80;;;14.20;91.30;;;;;;5118510;27;20047;-67
2022/07/05 01:28:41;;;;;;;7.63;4.55;;;14.20;92.10;;;;;;5112895;27;20028;-67
2022/07/05 01:31:07;;;;;;;6.78;4.68;;;14.20;92.30;;;;;;5112742;28;20463;-67
2022/07/05 01:33:32;;;;;;;8.48;4.78;;;14.20;92.60;;;;;;5135847;27;20031;-67
2022/07/05 01:35:58;;;;;;;6.25;4.55;;;14.20;92.60;;;;;;5114765;27;20028;-67
2022/07/05 01:38:27;;;;;;;9.13;5.50;;;14.20;92.90;;;;;;5109051;27;20034;-66
2022/07/05 01:40:52;;;;;;;7.28;4.80;;;14.20;93.20;;;;;;5114325;27;20055;-67
2022/07/05 01:43:19;;;;;;;6.68;4.80;;;14.20;93.20;;;;;;5110412;27;20072;-67
2022/07/05 01:45:46;;;;;;;6.43;4.70;;;14.20;93.60;;;;;;5116068;27;20038;-67
2022/07/05 01:48:16;;;;;;;8.57;4.90;;;14.20;93.70;;;;;;5117603;27;20039;-67
2022/07/05 01:50:51;;;;;;;7.20;4.57;;;14.20;93.60;;;;;;5113638;28;20354;-67
2022/07/05 01:53:28;;;;;;;7.53;4.53;;;14.10;93.60;;;;;;5105890;28;20023;-67
2022/07/05 01:55:56;;;;;;;11.23;5.05;;;14.10;93.60;;;;;;5115646;28;20043;-67
2022/07/05 01:58:24;;;;;;;7.82;4.13;;;14.00;93.30;;;;;;5109501;28;20040;-67
2022/07/05 02:00:53;;;;;;;8.48;4.53;;;14.10;93.50;;;;;;5116986;28;20035;-67
2022/07/05 02:03:19;;;;;;;6.10;4.30;;;14.00;93.70;;;;;;5113054;28;20019;-67
2022/07/05 02:05:45;;;;;;;6.93;4.72;;;14.00;93.80;;;;;;5112738;28;20035;-67
2022/07/05 02:08:12;;;;;;;7.15;4.47;;;14.00;93.70;;;;;;5116519;28;20161;-67
2022/07/05 02:10:39;;;;;;;7.78;4.50;;;13.90;93.90;;;;;;5116931;27;20505;-67
2022/07/05 02:13:05;;;;;;;6.45;4.05;;;13.80;93.50;;;;;;5109200;28;20028;-67
2022/07/05 02:15:33;;;;;;;8.82;4.65;;;13.80;93.10;;;;;;5112315;28;20028;-67
2022/07/05 02:18:00;;;;;;;10.90;4.40;;;13.70;93.40;;;;;;5116474;28;20080;-67
2022/07/05 02:20:26;;;;;;;9.20;4.60;;;13.70;93.20;;;;;;5113669;28;20114;-67
2022/07/05 02:22:52;;;;;;;9.52;4.63;;;13.70;93.60;;;;;;5114266;28;20020;-67
2022/07/05 02:25:17;;;;;;;9.55;4.90;;;13.70;93.90;;;;;;5115880;28;20027;-67
2022/07/05 02:27:43;;;;;;;7.80;4.65;;;13.70;94.00;;;;;;5115095;27;20103;-67
2022/07/05 02:30:09;;;;;;;6.68;4.15;;;13.70;94.10;;;;;;5110934;28;20027;-67
2022/07/05 02:32:35;;;;;;;6.38;4.13;;;13.70;94.20;;;;;;5110095;28;20035;-67
2022/07/05 02:35:02;;;;;;;5.68;3.55;;;13.60;94.60;;;;;;5106156;28;20659;-67
2022/07/05 02:37:27;;;;;;;8.55;3.92;;;13.70;95.50;;;;;;5110114;28;20032;-67
2022/07/05 02:39:54;;;;;;;6.80;3.92;;;13.70;96.30;;;;;;5108485;28;20538;-66
2022/07/05 02:42:20;;;;;;;6.00;3.75;;;13.70;96.70;;;;;;5108080;28;20319;-67
2022/07/05 02:44:45;;;;;;;8.60;3.67;;;13.70;96.80;;;;;;5105764;28;20032;-67
2022/07/05 02:47:11;;;;;;;7.97;3.47;;;13.70;97.00;;;;;;5109184;28;20111;-67
2022/07/05 02:49:38;;;;;;;8.02;3.90;;;13.70;96.80;;;;;;5108393;28;20563;-67
2022/07/05 02:52:03;;;;;;;6.32;3.10;;;13.60;96.90;;;;;;5107861;28;20519;-67
2022/07/05 02:54:29;;;;;;;7.65;3.40;;;13.60;97.10;;;;;;5108666;28;20023;-67
2022/07/05 02:56:55;;;;;;;5.13;3.65;;;13.50;97.20;;;;;;5108745;28;20365;-67
2022/07/05 02:59:20;;;;;;;5.70;3.50;;;13.40;97.10;;;;;;5109665;28;20027;-67
2022/07/05 03:01:46;;;;;;;5.15;3.55;;;13.40;97.30;;;;;;5110534;27;20016;-66
2022/07/05 03:04:12;;;;;;;6.35;3.35;;;13.50;97.50;;;;;;5112405;27;20042;-67
2022/07/05 03:06:37;;;;;;;5.25;3.40;;;13.40;97.40;;;;;;5112822;27;20120;-66
2022/07/05 03:09:06;;;;;;;5.97;3.60;;;13.30;96.70;;;;;;5112347;27;20032;-67
2022/07/05 03:11:32;;;;;;;7.70;3.70;;;13.30;96.80;;;;;;5110391;27;20030;-67
2022/07/05 03:13:58;;;;;;;6.22;3.30;;;13.30;97.30;;;;;;5113394;27;20293;-67
2022/07/05 03:16:24;;;;;;;5.55;3.53;;;13.40;97.70;;;;;;5110839;28;20440;-67
2022/07/05 03:18:50;;;;;;;6.55;3.42;;;13.40;97.80;;;;;;5111836;27;20033;-67
2022/07/05 03:21:16;;;;;;;5.72;3.05;;;13.40;97.90;;;;;;5111651;27;20028;-66
2022/07/05 03:23:41;;;;;;;7.03;3.25;;;13.40;98.00;;;;;;5112673;28;20359;-66
2022/07/05 03:26:10;;;;;;;6.13;2.97;;;13.40;98.00;;;;;;5110143;28;20136;-66
2022/07/05 03:28:36;;;;;;;7.88;3.40;;;13.30;98.00;;;;;;5113818;27;20312;-65
2022/07/05 03:31:02;;;;;;;5.75;2.80;;;13.30;98.00;;;;;;5110620;27;20024;-66
2022/07/05 03:33:27;;;;;;;6.35;3.00;;;13.30;98.00;;;;;;5113278;28;20169;-67
2022/07/05 03:35:53;;;;;;;6.28;3.15;;;13.30;98.00;;;;;;5109175;28;20024;-66
2022/07/05 03:38:19;;;;;;;5.85;3.10;;;13.40;98.00;;;;;;5113730;28;20046;-67
2022/07/05 03:40:44;;;;;;;5.65;3.10;;;13.30;98.00;;;;;;5110184;27;20114;-66
2022/07/05 03:43:10;;;;;;;4.53;3.25;;;13.30;98.00;;;;;;5111762;28;20332;-67
2022/07/05 03:45:35;;;;;;;5.68;3.30;;;13.20;98.00;;;;;;5109350;27;20032;-66
2022/07/05 03:48:01;;;;;;;5.95;2.97;;;13.20;98.00;;;;;;5113039;28;20416;-67
2022/07/05 03:50:30;;;;;;;6.00;2.90;;;13.20;98.00;;;;;;5110339;28;20030;-66
2022/07/05 03:52:59;;;;;;;6.15;3.45;;;13.20;98.00;;;;;;5112583;27;20023;-66
2022/07/05 03:55:25;;;;;;;4.88;3.10;;;13.00;98.00;;;;;;5108762;27;20059;-67
2022/07/05 03:57:50;;;;;;;7.20;3.58;;;12.90;97.60;;;;;;5109526;27;20067;-67
2022/07/05 04:00:16;;;;;;;5.88;3.15;;;12.80;97.30;;;;;;5110031;28;20344;-66
2022/07/05 04:02:42;;;;;;;7.05;3.58;;;12.80;97.10;;;;;;5111367;28;20024;-66
2022/07/05 04:05:08;;;;;;;6.80;3.30;;;12.80;97.20;;;;;;5107243;27;20031;-66
2022/07/05 04:07:34;;;;;;;7.68;3.00;;;12.80;97.30;;;;;;5111602;27;20365;-68
2022/07/05 04:09:59;;;;;;;4.93;3.25;;;12.90;98.00;;;;;;5110122;28;20030;-66
2022/07/05 04:12:26;;;;;;;9.43;3.05;;;13.00;98.00;;;;;;5111034;28;20039;-66
2022/07/05 04:14:51;;;;;;;7.68;3.15;;;13.10;98.00;;;;;;5111752;28;20439;-66
2022/07/05 04:17:17;;;;;;;7.30;2.85;;;13.10;98.00;;;;;;5108598;28;20055;-67
2022/07/05 04:19:43;;;;;;;4.53;3.10;;;13.20;98.00;;;;;;5112244;28;20057;-66
2022/07/05 04:22:09;;;;;;;6.25;3.17;;;13.20;98.00;;;;;;5106952;27;20017;-67
2022/07/05 04:27:19;;;;;;;6.20;3.20;;;13.10;98.00;;;;;;5110590;28;20053;-66
2022/07/05 04:29:45;;;;;;;7.63;3.38;;;13.10;98.00;;;;;;5111428;28;20027;-66
2022/07/05 04:32:10;;;;;;;6.15;3.10;;;13.10;98.00;;;;;;5110568;28;20027;-66
2022/07/05 04:34:37;;;;;;;5.20;2.60;;;13.10;98.00;;;;;;5112853;28;20038;-66
2022/07/05 04:37:03;;;;;;;5.53;2.70;;;13.10;98.00;;;;;;5108092;27;20024;-66
2022/07/05 04:39:29;;;;;;;5.10;2.92;;;13.20;98.00;;;;;;5111599;27;20043;-67
2022/07/05 04:41:54;;;;;;;10.18;3.05;;;13.20;98.00;;;;;;5109041;28;20023;-66
2022/07/05 04:44:20;;;;;;;5.00;2.88;;;13.20;98.00;;;;;;5110708;27;20043;-66
2022/07/05 04:46:48;;;;;;;5.15;2.15;;;13.20;98.00;;;;;;5108995;27;20028;-67
2022/07/05 04:49:13;;;;;;;5.15;2.70;;;13.30;98.00;;;;;;5112493;28;20024;-66
2022/07/05 04:51:39;;;;;;;6.38;3.03;;;13.30;98.00;;;;;;5105205;27;20058;-67
2022/07/05 04:54:05;;;;;;;5.53;2.97;;;13.20;98.00;;;;;;5109376;27;20031;-66
2022/07/05 04:56:30;;;;;;;5.78;2.70;;;13.20;98.00;;;;;;5111302;27;20031;-66
2022/07/05 04:58:56;;;;;;;8.32;2.83;;;13.20;98.00;;;;;;5110220;28;20114;-66
2022/07/05 05:01:21;;;;;;;6.00;2.70;;;13.20;98.00;;;;;;5108519;27;20023;-67
2022/07/05 05:03:47;;;;;;;4.20;2.55;;;13.30;98.00;;;;;;5115092;27;20024;-68
2022/07/05 05:06:14;;;;;;;7.45;3.22;;;13.40;98.00;;;;;;5105938;27;20024;-67
2022/07/05 05:08:41;;;;;;;5.25;2.90;;;13.50;98.00;;;;;;5111491;27;20073;-66
2022/07/05 05:11:07;;;;;;;5.00;2.42;;;13.70;98.00;;;;;;5110157;28;20055;-67
2022/07/05 05:13:33;;;;;;;4.72;2.72;;;13.80;98.00;;;;;;5114299;28;20447;-67
2022/07/05 05:15:59;;;;;;;5.43;2.60;;;13.80;98.00;;;;;;5111289;28;20063;-66
2022/07/05 05:18:26;;;;;;;4.65;2.13;;;13.80;98.00;;;;;;5107862;27;20028;-67
2022/07/05 05:20:53;;;;;;;5.80;2.85;;;14.00;98.00;;;;;;5108515;27;20115;-66
2022/07/05 05:23:19;;;;;;;5.00;2.28;;;14.10;98.00;;;;;;5109740;28;20015;-67
2022/07/05 05:25:45;;;;;;;4.43;2.20;;;14.20;98.00;;;;;;5113916;27;20026;-67
2022/07/05 05:28:10;;;;;;;6.00;2.30;;;14.40;98.00;;;;;;5106529;27;20027;-67
2022/07/05 05:30:36;;;;;;;4.95;1.95;;;14.60;98.00;;;;;;5113888;27;20039;-67
2022/07/05 05:33:02;;;;;;;4.32;2.30;;;14.70;98.00;;;;;;5114023;28;20027;-67
2022/07/05 05:35:27;;;;;;;3.90;1.92;;;14.80;98.00;;;;;;5109503;27;20034;-66
2022/07/05 05:37:55;;;;;;;5.57;2.10;;;14.90;98.00;;;;;;5110821;28;20451;-67
2022/07/05 05:40:22;;;;;;;5.25;2.28;;;15.10;98.00;;;;;;5115646;28;20063;-67
2022/07/05 05:42:49;;;;;;;4.10;2.00;;;15.20;98.00;;;;;;5111040;28;20019;-67
2022/07/05 05:45:15;;;;;;;6.88;2.38;;;15.30;98.00;;;;;;5112976;28;20040;-67
2022/07/05 05:47:47;;;;;;;6.25;2.10;;;15.50;98.00;;;;;;5112085;28;20486;-67
2022/07/05 05:50:13;;;;;;;3.95;2.15;;;15.70;98.00;;;;;;5107544;28;20034;-67
2022/07/05 05:52:39;;;;;;;6.18;2.20;;;15.90;98.00;;;;;;5115371;27;20080;-67
2022/07/05 05:55:06;;;;;;;5.60;2.20;;;16.10;96.20;;;;;;5113202;28;20028;-67
2022/07/05 05:57:33;;;;;;;5.65;2.00;;;16.30;93.20;;;;;;5102931;28;20104;-67
2022/07/05 05:59:59;;;;;;;4.72;2.40;;;16.50;92.50;;;;;;5105339;28;20059;-67
2022/07/05 06:02:24;;;;;;;4.60;2.40;;;16.70;91.50;;;;;;5107369;28;20053;-67
2022/07/05 06:04:50;;;;;;;7.00;2.45;;;16.80;90.30;;;;;;5113898;28;20024;-67
2022/07/05 06:07:16;;;;;;;5.40;2.42;;;16.90;89.90;;;;;;5112772;28;20079;-67
2022/07/05 06:09:41;;;;;;;9.02;2.53;;;17.00;89.10;;;;;;5115210;28;20107;-68
2022/07/05 06:12:08;;;;;;;6.63;2.10;;;17.00;89.30;;;;;;5114908;28;20443;-67
2022/07/05 06:14:33;;;;;;;4.07;2.33;;;17.00;89.80;;;;;;5118555;28;20024;-67
2022/07/05 06:16:59;;;;;;;4.35;2.10;;;17.00;89.80;;;;;;5113002;28;20027;-66
2022/07/05 06:19:24;;;;;;;7.28;2.28;;;17.10;90.00;;;;;;5117741;28;20107;-66
2022/07/05 06:21:50;;;;;;;10.30;2.63;;;17.00;89.80;;;;;;5113745;28;20024;-66
2022/07/05 06:24:16;;;;;;;4.65;2.40;;;17.00;90.70;;;;;;5113367;28;20078;-66
2022/07/05 06:26:41;;;;;;;6.97;2.50;;;17.10;90.80;;;;;;5112887;28;20028;-68
2022/07/05 06:29:07;;;;;;;11.38;2.60;;;17.10;91.00;;;;;;5113638;28;20058;-67
2022/07/05 06:31:33;;;;;;;14.65;2.60;;;17.20;90.40;;;;;;5114399;28;20308;-67
2022/07/05 06:33:58;;;;;;;6.60;3.00;;;17.20;90.90;;;;;;5114039;28;20023;-65
2022/07/05 06:36:24;;;;;;;9.45;2.97;;;17.30;91.20;;;;;;5116602;28;20076;-65
2022/07/05 06:38:50;;;;;;;5.53;2.70;;;17.40;90.20;;;;;;5118526;28;20034;-67
2022/07/05 06:41:16;;;;;;;7.15;3.30;;;17.40;89.20;;;;;;5118753;28;20031;-67
2022/07/05 06:43:41;;;;;;;8.63;2.67;;;17.40;90.00;;;;;;5115485;28;20363;-68
2022/07/05 06:46:07;;;;;;;8.50;2.47;;;17.60;90.40;;;;;;5117266;28;20027;-66
2022/07/05 06:48:32;;;;;;;4.97;2.72;;;17.70;89.10;;;;;;5117021;27;20069;-67
2022/07/05 06:50:58;;;;;;;7.32;2.90;;;17.80;88.70;;;;;;5118334;28;20439;-67
2022/07/05 06:53:24;;;;;;;7.70;2.95;;;18.00;88.90;;;;;;5118749;27;20031;-68
2022/07/05 06:55:50;;;;;;;6.72;2.85;;;17.90;88.50;;;;;;5118289;28;20362;-67
2022/07/05 06:58:16;;;;;;;5.05;2.72;;;18.10;88.00;;;;;;5118837;28;20081;-67
2022/07/05 07:00:42;;;;;;;4.50;2.63;;;18.10;87.20;;;;;;5119203;28;20031;-66
2022/07/05 07:03:08;;;;;;;8.02;3.00;;;18.10;87.50;;;;;;5119501;28;20408;-67
2022/07/05 07:05:34;;;;;;;4.75;2.47;;;18.30;86.80;;;;;;5118576;27;20060;-67
2022/07/05 07:10:45;;;;;;;;;;;18.50;87.50;;;;;;5119871;28;20058;-66
2022/07/05 07:13:11;;;;;;;7.15;2.80;;;18.60;87.40;;;;;;5119012;28;19943;-67
2022/07/05 07:15:40;;;;;;;6.35;2.85;;;18.70;87.40;;;;;;5118850;28;20047;-67
2022/07/05 07:18:06;;;;;;;8.73;3.10;;;18.90;87.80;;;;;;5119235;28;20035;-67
2022/07/05 07:20:32;;;;;;;6.10;2.63;;;19.00;87.20;;;;;;5117122;28;20064;-66
2022/07/05 07:22:58;;;;;;;6.43;2.67;;;19.10;85.80;;;;;;5119171;27;20031;-67
2022/07/05 07:25:23;;;;;;;5.82;2.40;;;19.20;86.10;;;;;;5118985;28;20024;-67
2022/07/05 07:27:52;;;;;;;4.85;2.42;;;19.40;85.40;;;;;;5118067;28;20027;-67
2022/07/05 07:30:21;;;;;;;7.35;2.67;;;19.90;84.90;;;;;;5118973;27;20110;-67
2022/07/05 07:32:47;;;;;;;7.38;2.42;;;20.70;83.30;;;;;;5118916;28;20038;-67
2022/07/05 07:35:13;;;;;;;5.25;2.30;;;21.70;79.60;;;;;;5117229;27;20035;-65
2022/07/05 07:37:39;;;;;;;7.22;2.03;;;22.90;76.50;;;;;;5118595;28;20054;-67
2022/07/05 07:40:06;;;;;;;5.95;2.00;;;23.60;73.40;;;;;;5118901;28;20031;-67
2022/07/05 07:42:32;;;;;;;4.20;1.73;;;24.10;72.20;;;;;;5117415;28;20027;-64
2022/07/05 07:44:58;;;;;;;6.25;2.08;;;24.50;70.60;;;;;;5117872;28;20043;-65
2022/07/05 07:47:23;;;;;;;4.90;1.77;;;24.70;70.60;;;;;;5117904;28;20016;-67
2022/07/05 07:49:49;;;;;;;5.35;1.90;;;24.50;70.00;;;;;;5118387;28;20024;-67
2022/07/05 07:52:15;;;;;;;5.40;1.80;;;24.50;70.00;;;;;;5126712;27;20400;-67
2022/07/05 07:54:41;;;;;;;4.85;1.60;;;24.90;68.40;;;;;;5124156;27;20404;-66
2022/07/05 07:57:07;;;;;;;6.50;2.15;;;25.80;67.70;;;;;;5116700;28;20036;-65
2022/07/05 07:59:33;;;;;;;9.05;2.10;;;26.70;65.70;;;;;;5118606;28;20415;-65
2022/07/05 08:01:59;;;;;;;4.18;1.30;;;26.00;66.50;;;;;;5117990;28;20053;-66
2022/07/05 08:04:24;;;;;;;8.00;1.83;;;26.10;67.40;;;;;;5118245;28;20354;-67
2022/07/05 08:06:50;;;;;;;4.53;1.77;;;26.80;64.70;;;;;;5117055;28;20027;-67
2022/07/05 08:09:16;;;;;;;4.43;1.90;;;26.50;65.10;;;;;;5117961;28;20420;-65
2022/07/05 08:11:42;;;;;;;4.30;1.55;;;26.40;66.60;;;;;;5117259;28;20114;-65
2022/07/05 08:14:08;;;;;;;4.60;1.50;;;26.80;65.10;;;;;;5118050;28;20051;-66
2022/07/05 08:16:34;;;;;;;8.40;2.28;;;26.70;64.00;;;;;;5118188;28;20047;-67
2022/07/05 08:21:44;;;;;;;5.25;1.67;;;26.40;64.80;;;;;;5117644;27;20043;-67
2022/07/05 08:24:14;;;;;;;7.30;1.70;;;26.30;65.70;;;;;;5118612;27;20058;-67
2022/07/05 08:26:40;;;;;;;4.80;1.75;;;26.20;65.80;;;;;;5117944;27;20520;-66
2022/07/05 08:29:12;;;;;;;4.55;1.58;;;26.60;64.00;;;;;;5119214;27;20023;-67
2022/07/05 08:31:44;;;;;;;5.88;1.63;;;27.00;62.00;;;;;;5130979;27;20139;-66
2022/07/05 08:34:10;;;;;;;6.45;1.50;;;26.80;62.40;;;;;;5137243;27;20055;-67
2022/07/05 08:36:36;;;;;;;4.70;1.40;;;26.70;62.00;;;;;;5136883;27;20088;-67
2022/07/05 08:39:03;;;;;;;6.18;1.40;;;27.00;62.30;;;;;;5138409;27;20027;-67
2022/07/05 08:41:29;;;;;;;5.90;1.33;;;27.60;62.30;;;;;;5123250;27;20024;-67
2022/07/05 08:43:57;;;;;;;5.70;1.40;;;27.80;61.40;;;;;;5121036;27;20122;-66
2022/07/05 08:46:25;;;;;;;3.80;1.20;;;28.00;59.80;;;;;;5125321;27;20023;-67
2022/07/05 08:48:51;;;;;;;6.75;1.42;;;27.70;60.10;;;;;;5117501;28;20379;-67
2022/07/05 08:51:22;;;;;;;4.63;1.40;;;27.20;60.50;;;;;;5129345;27;20023;-66
2022/07/05 08:53:49;;;;;;;4.75;1.30;;;26.90;61.80;;;;;;5118260;27;20057;-67
2022/07/05 08:56:15;;;;;;;4.50;1.27;;;27.10;62.00;;;;;;5118168;27;20035;-67
2022/07/05 08:58:41;;;;;;;3.83;1.40;;;27.50;60.90;;;;;;5114363;28;20019;-66
2022/07/05 09:01:09;;;;;;;4.28;1.77;;;27.30;60.00;;;;;;5115518;27;20039;-67
2022/07/05 09:03:46;;;;;;;3.72;1.27;;;27.00;60.60;;;;;;5116650;28;20302;-67
2022/07/05 09:06:16;;;;;;;3.72;1.20;;;26.90;61.80;;;;;;5115904;28;20051;-67
2022/07/05 09:08:44;;;;;;;4.03;1.27;;;27.50;61.40;;;;;;5117010;28;20068;-66
2022/07/05 09:11:13;;;;;;;4.32;1.15;;;28.20;61.20;;;;;;5116636;28;20493;-66
2022/07/05 09:13:41;;;;;;;5.10;1.30;;;27.90;60.20;;;;;;5116496;28;20331;-65
2022/07/05 09:16:08;;;;;;;3.97;1.08;;;27.20;60.40;;;;;;5116253;28;20035;-65
2022/07/05 09:18:52;;;;;;;6.72;1.40;;;27.40;60.40;;;;;;5117180;28;20028;-66
2022/07/05 09:21:18;;;;;;;;;;;27.70;60.80;;;;;;5118880;27;20059;-66
2022/07/05 09:23:54;;;;;;;5.85;1.17;;;28.40;60.40;;;;;;5127794;27;20324;-66
2022/07/05 09:26:20;;;;;;;3.97;1.38;;;28.70;59.10;;;;;;5115291;28;20023;-66
2022/07/05 09:28:56;;;;;;;4.93;1.20;;;29.30;58.10;;;;;;5116759;28;20030;-65
2022/07/05 09:31:33;;;;;;;5.60;1.20;;;29.40;57.20;;;;;;5129504;27;20084;-67
2022/07/05 09:34:11;;;;;;;4.45;1.27;;;29.70;56.90;;;;;;5129678;27;20027;-67
2022/07/05 09:37:02;;;;;;;2.92;1.10;;;29.80;56.50;;;;;;5115475;28;20038;-67
2022/07/05 09:39:36;;;;;;;3.58;1.10;;;29.50;55.20;;;;;;5116624;28;20070;-67
2022/07/05 09:42:20;;;;;;;;;;;28.90;56.80;;;;;;5116250;28;20027;-66
2022/07/05 09:44:52;;;;;;;4.60;1.20;;;29.40;55.40;;;;;;5116458;28;20220;-67
2022/07/05 09:47:20;;;;;;;7.75;1.55;;;28.90;55.70;;;;;;5116541;28;20371;-67
2022/07/05 09:49:50;;;;;;;3.55;1.40;;;27.50;58.80;;;;;;5116504;28;20027;-66
2022/07/05 09:52:27;;;;;;;4.00;1.40;;;27.50;57.80;;;;;;5125965;27;20416;-67
2022/07/05 09:55:16;;;;;;;3.50;1.30;;;28.50;56.30;;;;;;5135188;27;20031;-66
2022/07/05 09:57:43;;;;;;;5.13;1.50;;;29.20;57.00;;;;;;5115786;28;20321;-66
2022/07/05 10:00:14;;;;;;;2.88;1.10;;;29.70;55.30;;;;;;5125303;28;20069;-67
2022/07/05 10:02:44;;;;;;;4.47;1.30;;;27.50;55.10;;;;;;5123435;28;20032;-66
2022/07/05 10:05:14;;;;;;;7.18;1.35;;;25.50;58.50;;;;;;5114435;28;20390;-66
2022/07/05 10:07:45;;;;;;;2.30;1.00;;;25.50;58.50;;;;;;5115774;28;20038;-67
2022/07/05 10:10:13;;;;;;;6.85;1.20;;;26.60;55.30;;;;;;5116362;28;20020;-67
2022/07/05 10:12:41;;;;;;;4.72;1.15;;;27.50;56.30;;;;;;5120550;28;20063;-66
2022/07/05 10:15:09;;;;;;;3.80;1.02;;;27.80;54.30;;;;;;5120248;28;20051;-66
2022/07/05 10:17:39;;;;;;;2.88;1.13;;;28.00;51.30;;;;;;5119978;27;20073;-67
2022/07/05 10:20:12;;;;;;;4.72;0.88;;;28.70;51.00;;;;;;5118020;28;20020;-66
2022/07/05 10:22:39;;;;;;;2.25;0.80;;;29.00;48.70;;;;;;5119206;27;20016;-67
2022/07/05 10:25:06;;;;;;;2.83;0.80;;;29.50;48.20;;;;;;5123848;27;20023;-67
2022/07/05 10:27:34;;;;;;;2.55;0.90;;;30.30;48.20;;;;;;5119854;27;20024;-67
2022/07/05 10:30:03;;;;;;;4.22;1.00;;;30.90;50.30;;;;;;5122212;27;20019;-67
2022/07/05 10:32:30;;;;;;;2.72;0.75;;;31.20;48.80;;;;;;5115762;28;20102;-66
2022/07/05 10:34:58;;;;;;;4.07;1.10;;;31.00;50.40;;;;;;5118927;27;20059;-67
2022/07/05 10:37:30;;;;;;;6.22;1.45;;;30.30;50.40;;;;;;5122723;27;20016;-67
2022/07/05 10:39:58;;;;;;;6.38;1.25;;;29.30;51.90;;;;;;5119322;28;20150;-67
2022/07/05 10:42:26;;;;;;;4.00;0.90;;;28.80;51.90;;;;;;5120251;27;20366;-67
2022/07/05 10:44:54;;;;;;;5.43;1.10;;;28.60;52.50;;;;;;5119374;28;20050;-66
2022/07/05 10:47:20;;;;;;;5.30;1.00;;;29.10;52.60;;;;;;5119925;28;20019;-67
2022/07/05 10:50:03;;;;;;;3.42;1.00;;;30.10;51.30;;;;;;5119368;28;20405;-67
2022/07/05 10:52:29;;;;;;;3.63;1.00;;;30.10;50.60;;;;;;5118375;27;20028;-67
2022/07/05 10:55:46;;;;;;;4.72;1.00;;;29.90;50.70;;;;;;5118529;28;20027;-66
2022/07/05 10:58:17;;;;;;;4.93;1.00;;;29.50;51.90;;;;;;5032915;28;20029;-66
2022/07/05 11:00:43;;;;;;;5.38;0.98;;;29.40;51.30;;;;;;5122756;27;20048;-66
2022/07/05 11:03:48;;;;;;;2.92;1.08;;;29.10;52.60;;;;;;5118221;28;20376;-66
2022/07/05 11:06:37;;;;;;;2.63;1.10;;;28.80;51.90;;;;;;5052373;28;20075;-66
2022/07/05 11:09:03;;;;;;;3.80;1.20;;;27.60;53.30;;;;;;5114903;28;20035;-66
2022/07/05 11:11:34;;;;;;;2.97;1.00;;;26.70;55.30;;;;;;5122505;27;20030;-66
2022/07/05 11:14:06;;;;;;;4.30;1.05;;;27.00;55.20;;;;;;5138400;27;20373;-67
2022/07/05 11:16:33;;;;;;;3.58;1.10;;;27.20;54.70;;;;;;5103281;27;20093;-66
2022/07/05 11:19:11;;;;;;;3.40;1.10;;;26.70;55.30;;;;;;5097652;28;20316;-66
2022/07/05 11:21:40;;;;;;;3.95;1.00;;;27.10;55.40;;;;;;5115065;27;20054;-66
2022/07/05 11:24:27;;;;;;;4.80;1.42;;;27.80;54.20;;;;;;5126104;27;20097;-66
2022/07/05 11:26:57;;;;;;;2.00;0.90;;;28.60;53.40;;;;;;5126422;27;20055;-66
2022/07/05 11:29:43;;;;;;;5.20;1.30;;;29.00;51.30;;;;;;5117737;28;20077;-67
2022/07/05 11:32:21;;;;;;;4.18;1.10;;;29.20;53.00;;;;;;5115509;27;20165;-67
2022/07/05 11:34:51;;;;;;;5.70;1.30;;;29.30;52.30;;;;;;5107393;28;20396;-66
2022/07/05 11:37:42;;;;;;;3.22;1.00;;;29.10;53.00;;;;;;5115974;28;20092;-66
2022/07/05 11:40:07;;;;;;;5.40;1.35;;;29.30;53.80;;;;;;5116448;27;20043;-67
2022/07/05 11:42:34;;;;;;;5.03;1.10;;;29.60;54.60;;;;;;5121560;27;20024;-66
2022/07/05 11:45:05;;;;;;;3.35;0.88;;;29.50;52.00;;;;;;5116785;28;20340;-67
2022/07/05 11:47:30;;;;;;;4.55;1.00;;;28.90;52.10;;;;;;5116255;28;20031;-66
2022/07/05 11:49:57;;;;;;;5.90;1.00;;;28.60;53.80;;;;;;5116476;28;20028;-66
2022/07/05 11:52:27;;;;;;;3.35;1.10;;;28.10;53.90;;;;;;5126272;27;20068;-66
2022/07/05 11:54:53;;;;;;;4.80;1.30;;;27.60;53.70;;;;;;5120524;27;20020;-66
2022/07/05 11:57:19;;;;;;;3.13;1.00;;;27.80;55.40;;;;;;5115998;27;20028;-65
2022/07/05 11:59:46;;;;;;;4.00;0.90;;;27.90;55.70;;;;;;5115155;28;20023;-65
2022/07/05 12:02:14;;;;;;;8.07;1.33;;;28.40;53.80;;;;;;5115187;27;20074;-65
2022/07/05 12:04:40;;;;;;;3.88;1.20;;;28.90;54.50;;;;;;5116914;28;20031;-65
2022/07/05 12:07:06;;;;;;;2.53;0.90;;;29.30;52.30;;;;;;5114052;28;20319;-65
2022/07/05 12:15:04;;;;;;;3.42;1.02;;;29.30;54.50;;;;;;5115780;28;20034;-65
2022/07/05 12:17:33;;;;;;;4.05;1.02;;;30.00;52.50;;;;;;5115580;28;20040;-67
2022/07/05 12:19:59;;;;;;;1.98;0.90;;;30.20;50.30;;;;;;5116478;28;20054;-67
2022/07/05 12:22:29;;;;;;;2.75;0.93;;;29.60;50.80;;;;;;5115918;27;20329;-67
2022/07/05 12:24:55;;;;;;;3.42;1.10;;;29.10;52.90;;;;;;5121195;27;20019;-68
2022/07/05 12:27:21;;;;;;;2.75;0.85;;;28.50;53.20;;;;;;5100263;27;20038;-67
2022/07/05 12:29:46;;;;;;;3.97;1.10;;;28.10;54.40;;;;;;5116124;27;20020;-67
2022/07/05 12:32:12;;;;;;;3.00;1.00;;;27.90;53.70;;;;;;5115947;28;20091;-67
2022/07/05 12:34:38;;;;;;;4.57;1.10;;;26.90;54.00;;;;;;5115673;27;20027;-67
2022/07/05 12:37:05;;;;;;;3.83;1.00;;;26.40;55.70;;;;;;5114102;28;20312;-67
2022/07/05 12:39:30;;;;;;;4.25;1.30;;;26.70;57.80;;;;;;5122804;27;20430;-67
2022/07/05 12:41:58;;;;;;;2.78;1.10;;;27.80;55.80;;;;;;5121670;27;20073;-66
2022/07/05 12:44:24;;;;;;;2.83;0.90;;;27.80;54.30;;;;;;5113996;28;20044;-67
2022/07/05 12:46:51;;;;;;;4.68;1.15;;;28.00;54.00;;;;;;5113556;27;20027;-66
2022/07/05 12:49:17;;;;;;;3.55;1.00;;;28.70;52.10;;;;;;5119672;27;20111;-65
2022/07/05 12:51:45;;;;;;;5.47;0.80;;;29.10;53.60;;;;;;5114076;28;20426;-67
2022/07/05 13:00:08;;;;;;;3.50;1.15;;;29.60;51.90;;;;;;5115278;28;20045;-67
2022/07/05 13:02:39;;;;;;;4.75;1.00;;;28.80;51.60;;;;;;5113188;28;20413;-66
2022/07/05 13:05:18;;;;;;;3.40;0.90;;;28.90;52.60;;;;;;5114676;27;20051;-67
2022/07/05 13:07:44;;;;;;;5.50;1.00;;;29.10;52.60;;;;;;5114110;28;20015;-67
2022/07/05 13:10:21;;;;;;;1.70;0.73;;;29.80;52.00;;;;;;5117247;28;20039;-66